Time;durP1;ratioP1;P1;durP2;ratioP2;P2;SDS_P1;SDS_P2;PMS_P1;PMS_P2;Temp;Humidity;BMP_temperature;BMP_pressure;BME280_temperature;BME280_humidity;BME280_pressure;Samples;Min_cycle;Max_cycle;Signal;HPM_P1;HPM_P2
2022/07/06 00:01:50;;;;;;;3.42;2.00;;;14.20;99.90;;;;;;5031358;28;20044;-64
2022/07/06 00:04:17;;;;;;;5.40;2.25;;;14.20;99.90;;;;;;5030927;28;20042;-64
2022/07/06 00:06:42;;;;;;;4.65;2.40;;;14.20;99.90;;;;;;5020394;28;20083;-65
2022/07/06 00:09:08;;;;;;;5.80;2.28;;;14.30;99.90;;;;;;5020872;28;20543;-64
2022/07/06 00:11:34;;;;;;;5.15;2.28;;;14.30;99.90;;;;;;5027625;28;20052;-65
2022/07/06 00:13:59;;;;;;;4.35;2.05;;;14.30;99.90;;;;;;5023459;28;20492;-64
2022/07/06 00:16:25;;;;;;;9.52;2.20;;;14.30;99.90;;;;;;5025577;28;20045;-65
2022/07/06 00:18:51;;;;;;;5.82;2.03;;;14.30;99.90;;;;;;5027945;28;20479;-65
2022/07/06 00:21:17;;;;;;;5.97;2.20;;;14.30;99.90;;;;;;5026673;28;20125;-65
2022/07/06 00:23:43;;;;;;;5.43;2.00;;;14.30;99.90;;;;;;5026862;28;20042;-64
2022/07/06 00:26:08;;;;;;;3.65;1.67;;;14.40;99.90;;;;;;5023597;28;20033;-64
2022/07/06 00:28:34;;;;;;;5.07;2.08;;;14.40;99.90;;;;;;5026112;28;20172;-65
2022/07/06 00:31:00;;;;;;;6.20;2.10;;;14.40;99.90;;;;;;5024033;28;20054;-65
2022/07/06 00:33:25;;;;;;;5.93;2.17;;;14.50;99.90;;;;;;5026170;28;20037;-65
2022/07/06 00:35:51;;;;;;;6.38;1.90;;;14.50;99.90;;;;;;5018579;28;20038;-64
2022/07/06 00:38:17;;;;;;;8.45;1.92;;;14.50;99.90;;;;;;5019941;28;20469;-64
2022/07/06 00:40:42;;;;;;;3.55;2.05;;;14.50;99.90;;;;;;5027833;28;20120;-64
2022/07/06 00:43:08;;;;;;;5.47;1.90;;;14.50;99.90;;;;;;5022119;28;20564;-65
2022/07/06 00:45:33;;;;;;;4.72;1.77;;;14.60;99.90;;;;;;5017355;28;20099;-66
2022/07/06 00:47:59;;;;;;;5.13;2.20;;;14.50;99.90;;;;;;5020613;28;20036;-64
2022/07/06 00:50:28;;;;;;;4.63;1.95;;;14.60;99.90;;;;;;5013644;28;20617;-64
2022/07/06 00:52:56;;;;;;;6.05;2.00;;;14.60;99.90;;;;;;5021905;28;20034;-64
2022/07/06 00:55:33;;;;;;;4.90;1.83;;;14.60;99.90;;;;;;5016334;28;20049;-64
2022/07/06 00:58:02;;;;;;;5.25;2.10;;;14.60;99.90;;;;;;5017329;28;20515;-64
2022/07/06 01:00:28;;;;;;;5.63;2.13;;;14.60;99.90;;;;;;5022070;28;20069;-64
2022/07/06 01:02:54;;;;;;;2.92;1.77;;;14.60;99.90;;;;;;5018250;28;20073;-64
2022/07/06 01:05:20;;;;;;;5.43;1.98;;;14.60;99.90;;;;;;5026496;28;20396;-64
2022/07/06 01:07:49;;;;;;;6.90;1.80;;;14.60;99.90;;;;;;5018002;28;20136;-65
2022/07/06 01:10:16;;;;;;;3.67;1.80;;;14.60;99.90;;;;;;5020810;28;20044;-66
2022/07/06 01:12:43;;;;;;;5.32;2.10;;;14.70;99.90;;;;;;5024184;28;20045;-65
2022/07/06 01:15:11;;;;;;;5.30;1.80;;;14.70;99.90;;;;;;5023054;28;20446;-64
2022/07/06 01:17:39;;;;;;;3.15;1.58;;;14.70;99.90;;;;;;5030011;28;20088;-66
2022/07/06 01:20:15;;;;;;;6.03;2.00;;;14.70;99.90;;;;;;5023625;28;20399;-66
2022/07/06 01:22:42;;;;;;;4.28;1.67;;;14.70;99.90;;;;;;5013700;28;20485;-64
2022/07/06 01:25:08;;;;;;;6.35;1.85;;;14.70;99.90;;;;;;5023697;28;20045;-63
2022/07/06 01:27:37;;;;;;;7.53;2.00;;;14.70;99.90;;;;;;5029695;28;20033;-63
2022/07/06 01:30:11;;;;;;;4.35;1.73;;;14.70;99.90;;;;;;5023734;28;20051;-63
2022/07/06 01:32:37;;;;;;;4.95;1.80;;;14.80;99.90;;;;;;5006931;28;20132;-63
2022/07/06 01:35:06;;;;;;;4.35;1.80;;;14.80;99.90;;;;;;5018958;28;20038;-69
2022/07/06 01:37:32;;;;;;;3.72;2.10;;;14.80;99.90;;;;;;5019812;28;20073;-63
2022/07/06 01:40:02;;;;;;;4.30;1.90;;;14.80;99.90;;;;;;5019322;28;20069;-64
2022/07/06 01:42:28;;;;;;;3.50;1.65;;;14.70;99.90;;;;;;5011710;28;20042;-68
2022/07/06 01:44:54;;;;;;;5.32;1.90;;;14.70;99.90;;;;;;5013762;28;20050;-68
2022/07/06 01:47:20;;;;;;;3.33;1.80;;;14.70;99.90;;;;;;5028282;28;20037;-65
2022/07/06 01:49:45;;;;;;;4.50;1.85;;;14.70;99.90;;;;;;5023193;28;20469;-67
2022/07/06 01:52:11;;;;;;;4.90;1.90;;;14.70;99.90;;;;;;5022661;28;20049;-63
2022/07/06 01:54:37;;;;;;;3.42;1.90;;;14.70;99.90;;;;;;5022509;28;20507;-63
2022/07/06 01:57:03;;;;;;;5.32;2.17;;;14.70;99.90;;;;;;5023451;28;20042;-65
2022/07/06 01:59:28;;;;;;;4.40;1.92;;;14.60;99.90;;;;;;5027675;28;20039;-64
2022/07/06 02:01:54;;;;;;;5.22;2.30;;;14.60;99.90;;;;;;5023966;28;20041;-64
2022/07/06 02:04:20;;;;;;;6.60;2.17;;;14.60;99.90;;;;;;5022655;28;20061;-70
2022/07/06 02:06:45;;;;;;;2.90;2.05;;;14.50;99.90;;;;;;5029401;28;20091;-63
2022/07/06 02:09:11;;;;;;;4.30;1.88;;;14.50;99.90;;;;;;5018692;28;20045;-63
2022/07/06 02:11:37;;;;;;;2.95;1.80;;;14.50;99.90;;;;;;5012969;28;20038;-63
2022/07/06 02:14:03;;;;;;;6.57;2.15;;;14.50;99.90;;;;;;5025596;28;20115;-65
2022/07/06 02:16:28;;;;;;;3.95;1.55;;;14.50;99.90;;;;;;5023522;28;20136;-67
2022/07/06 02:18:54;;;;;;;4.38;1.90;;;14.50;99.90;;;;;;5018315;28;20046;-63
2022/07/06 02:21:19;;;;;;;5.22;1.85;;;14.50;99.90;;;;;;5028667;28;20030;-63
2022/07/06 02:23:45;;;;;;;4.40;2.08;;;14.50;99.90;;;;;;5024493;28;20045;-63
2022/07/06 02:26:11;;;;;;;4.63;1.80;;;14.50;99.90;;;;;;5018835;28;20538;-66
2022/07/06 02:28:36;;;;;;;8.88;2.00;;;14.50;99.90;;;;;;5022590;28;20069;-67
2022/07/06 02:31:02;;;;;;;3.55;1.70;;;14.50;99.90;;;;;;5020985;28;20045;-69
2022/07/06 02:33:27;;;;;;;3.63;1.80;;;14.50;99.90;;;;;;5023114;28;20041;-63
2022/07/06 02:35:53;;;;;;;4.18;1.80;;;14.50;99.90;;;;;;5028522;28;20034;-63
2022/07/06 02:38:19;;;;;;;6.70;2.08;;;14.60;99.90;;;;;;5032377;28;20129;-67
2022/07/06 02:40:45;;;;;;;4.63;2.10;;;14.60;99.90;;;;;;5026609;28;20041;-63
2022/07/06 02:43:10;;;;;;;4.47;2.03;;;14.60;99.90;;;;;;5031237;28;20037;-63
2022/07/06 02:45:36;;;;;;;5.57;2.17;;;14.60;99.90;;;;;;5035757;28;20476;-63
2022/07/06 02:48:02;;;;;;;6.18;2.05;;;14.60;99.90;;;;;;5022068;28;20033;-63
2022/07/06 02:50:27;;;;;;;6.65;2.00;;;14.60;99.90;;;;;;5021685;28;20038;-65
2022/07/06 02:52:54;;;;;;;3.90;1.98;;;14.60;99.90;;;;;;5021492;28;20542;-63
2022/07/06 02:55:20;;;;;;;5.13;2.00;;;14.60;99.90;;;;;;5028822;28;20081;-63
2022/07/06 02:57:46;;;;;;;7.90;2.20;;;14.50;99.90;;;;;;5019007;28;20076;-64
2022/07/06 03:00:12;;;;;;;5.82;2.05;;;14.50;99.90;;;;;;5026849;28;20041;-65
2022/07/06 03:02:38;;;;;;;4.10;1.88;;;14.50;99.90;;;;;;5023623;28;20546;-65
2022/07/06 03:05:04;;;;;;;4.55;2.10;;;14.60;99.90;;;;;;5027231;28;20045;-65
2022/07/06 03:07:30;;;;;;;4.93;1.90;;;14.50;99.90;;;;;;5020343;28;20054;-65
2022/07/06 03:09:55;;;;;;;7.55;2.20;;;14.60;99.90;;;;;;5025463;28;20041;-65
2022/07/06 03:12:21;;;;;;;6.78;2.65;;;14.50;99.90;;;;;;5034348;28;20049;-65
2022/07/06 03:14:46;;;;;;;5.40;2.03;;;14.50;99.90;;;;;;5014783;28;20056;-65
2022/07/06 03:17:12;;;;;;;3.85;1.90;;;14.50;99.90;;;;;;5022413;28;20033;-65
2022/07/06 03:19:38;;;;;;;6.00;2.17;;;14.50;99.90;;;;;;5017006;28;20507;-65
2022/07/06 03:22:04;;;;;;;3.95;1.88;;;14.50;99.90;;;;;;5019903;28;20077;-65
2022/07/06 03:24:29;;;;;;;4.25;2.00;;;14.50;99.90;;;;;;5030271;28;20169;-65
2022/07/06 03:26:55;;;;;;;5.35;2.17;;;14.50;99.90;;;;;;5031697;28;20046;-65
2022/07/06 03:29:21;;;;;;;4.57;1.92;;;14.50;99.90;;;;;;5028911;28;20477;-65
2022/07/06 03:31:47;;;;;;;3.63;1.98;;;14.50;99.90;;;;;;5030672;28;20041;-65
2022/07/06 03:34:12;;;;;;;5.05;2.30;;;14.50;99.90;;;;;;5027044;28;20033;-65
2022/07/06 03:36:38;;;;;;;3.08;1.90;;;14.50;99.90;;;;;;5029706;28;20091;-65
2022/07/06 03:39:04;;;;;;;4.22;1.95;;;14.50;99.90;;;;;;5018971;28;20044;-65
2022/07/06 03:41:30;;;;;;;5.93;1.98;;;14.50;99.90;;;;;;5021811;28;20033;-65
2022/07/06 03:43:55;;;;;;;6.25;2.00;;;14.50;99.90;;;;;;5032069;28;20033;-65
2022/07/06 03:46:21;;;;;;;6.60;2.30;;;14.50;99.90;;;;;;5030749;28;20095;-65
2022/07/06 03:48:47;;;;;;;3.42;2.00;;;14.50;99.90;;;;;;5024177;28;20408;-65
2022/07/06 03:51:12;;;;;;;4.10;2.05;;;14.50;99.90;;;;;;5029994;28;20557;-65
2022/07/06 03:53:38;;;;;;;5.70;2.08;;;14.60;99.90;;;;;;5030855;28;20048;-65
2022/07/06 03:58:48;;;;;;;4.43;2.03;;;14.60;99.90;;;;;;5018285;28;20050;-65
2022/07/06 04:01:14;;;;;;;5.20;1.83;;;14.60;99.90;;;;;;5029709;28;20038;-65
2022/07/06 04:03:40;;;;;;;5.07;1.95;;;14.60;99.90;;;;;;5029938;28;20041;-65
2022/07/06 04:06:05;;;;;;;3.88;1.95;;;14.60;99.90;;;;;;5031221;28;20044;-65
2022/07/06 04:08:31;;;;;;;6.65;2.13;;;14.60;99.90;;;;;;5021423;28;20120;-65
2022/07/06 04:10:57;;;;;;;5.65;1.55;;;14.60;99.90;;;;;;5024319;28;20476;-65
2022/07/06 04:13:23;;;;;;;3.97;1.98;;;14.60;99.90;;;;;;5026729;28;20072;-65
2022/07/06 04:15:49;;;;;;;5.13;2.20;;;14.70;99.90;;;;;;5020696;28;20037;-65
2022/07/06 04:18:14;;;;;;;6.85;1.70;;;14.70;99.90;;;;;;5026191;28;20044;-65
2022/07/06 04:20:40;;;;;;;3.88;1.98;;;14.70;99.90;;;;;;5015812;28;20130;-65
2022/07/06 04:23:06;;;;;;;3.22;1.77;;;14.70;99.90;;;;;;5017472;28;20056;-65
2022/07/06 04:25:31;;;;;;;4.40;1.80;;;14.70;99.90;;;;;;5017778;28;20037;-65
2022/07/06 04:27:57;;;;;;;5.68;1.95;;;14.70;99.90;;;;;;5022929;28;20424;-65
2022/07/06 04:30:23;;;;;;;6.47;1.90;;;14.70;99.90;;;;;;5014130;28;20084;-65
2022/07/06 04:32:48;;;;;;;4.15;1.85;;;14.70;99.90;;;;;;5023328;28;20042;-65
2022/07/06 04:35:14;;;;;;;5.10;1.92;;;14.70;99.90;;;;;;5022424;28;20029;-65
2022/07/06 04:37:39;;;;;;;4.78;1.73;;;14.70;99.90;;;;;;5020751;28;20038;-65
2022/07/06 04:40:06;;;;;;;5.07;2.00;;;14.70;99.90;;;;;;5025602;28;20034;-65
2022/07/06 04:42:31;;;;;;;3.47;1.70;;;14.70;99.90;;;;;;5024322;28;20038;-65
2022/07/06 04:44:57;;;;;;;4.22;1.85;;;14.70;99.90;;;;;;5019451;28;20080;-65
2022/07/06 04:47:22;;;;;;;7.47;1.83;;;14.70;99.90;;;;;;5020149;28;20100;-65
2022/07/06 04:49:48;;;;;;;4.28;1.90;;;14.70;99.90;;;;;;5021099;28;20472;-65
2022/07/06 04:52:14;;;;;;;4.75;1.90;;;14.60;99.90;;;;;;5022521;28;20486;-65
2022/07/06 04:54:39;;;;;;;4.07;1.77;;;14.60;99.90;;;;;;5029700;28;20056;-65
2022/07/06 04:57:05;;;;;;;3.80;1.73;;;14.60;99.90;;;;;;5025992;28;20040;-65
2022/07/06 04:59:31;;;;;;;6.35;1.83;;;14.60;99.90;;;;;;5010769;28;20038;-65
2022/07/06 05:01:56;;;;;;;3.58;1.70;;;14.70;99.90;;;;;;5021155;28;20037;-65
2022/07/06 05:04:23;;;;;;;6.45;1.65;;;14.70;99.90;;;;;;5028559;28;20041;-65
2022/07/06 05:06:49;;;;;;;5.80;1.73;;;14.80;99.90;;;;;;5025806;28;20051;-65
2022/07/06 05:09:14;;;;;;;4.00;1.60;;;14.90;99.90;;;;;;5026274;28;20045;-65
2022/07/06 05:11:40;;;;;;;5.00;1.70;;;14.90;99.90;;;;;;5016114;28;20033;-65
2022/07/06 05:14:06;;;;;;;8.57;1.73;;;15.00;99.90;;;;;;5030252;28;20033;-65
2022/07/06 05:16:33;;;;;;;4.55;1.85;;;15.00;99.90;;;;;;5022995;28;20034;-65
2022/07/06 05:18:58;;;;;;;6.95;1.70;;;15.00;99.90;;;;;;5024967;28;20044;-65
2022/07/06 05:21:24;;;;;;;5.72;1.65;;;15.10;99.90;;;;;;5019166;28;20037;-65
2022/07/06 05:23:50;;;;;;;3.17;1.50;;;15.20;99.90;;;;;;5028747;28;20048;-65
2022/07/06 05:26:15;;;;;;;4.68;1.60;;;15.30;99.90;;;;;;5026121;28;20037;-65
2022/07/06 05:28:41;;;;;;;5.65;1.75;;;15.30;99.90;;;;;;5025570;28;20047;-65
2022/07/06 05:31:07;;;;;;;5.10;1.75;;;15.40;99.90;;;;;;5018599;28;20132;-65
2022/07/06 05:33:33;;;;;;;3.03;1.38;;;15.40;99.90;;;;;;5003730;28;20053;-65
2022/07/06 05:35:58;;;;;;;8.48;1.95;;;15.30;99.90;;;;;;5030901;28;20079;-65
2022/07/06 05:38:24;;;;;;;4.13;1.50;;;15.40;99.90;;;;;;5017203;28;20096;-65
2022/07/06 05:40:50;;;;;;;5.40;1.48;;;15.40;99.90;;;;;;5018276;28;20116;-65
2022/07/06 05:43:16;;;;;;;4.95;1.83;;;15.30;99.90;;;;;;5010306;28;20489;-65
2022/07/06 05:45:42;;;;;;;8.35;2.10;;;15.30;99.90;;;;;;5021913;28;20044;-65
2022/07/06 05:50:52;;;;;;;5.22;1.58;;;15.20;99.90;;;;;;5019918;28;20224;-65
2022/07/06 05:53:17;;;;;;;5.28;1.40;;;15.20;99.90;;;;;;5021780;28;20480;-65
2022/07/06 05:55:44;;;;;;;4.15;1.17;;;15.10;99.90;;;;;;5028704;28;20033;-65
2022/07/06 05:58:09;;;;;;;5.20;1.63;;;15.10;99.90;;;;;;5021774;28;20115;-65
2022/07/06 06:00:35;;;;;;;5.78;1.30;;;15.10;99.90;;;;;;5030734;28;20050;-65
2022/07/06 06:03:00;;;;;;;4.25;1.20;;;15.10;99.90;;;;;;5023257;28;20034;-65
2022/07/06 06:05:26;;;;;;;3.45;1.30;;;15.10;99.90;;;;;;5026099;28;20049;-65
2022/07/06 06:07:52;;;;;;;4.20;1.45;;;15.10;99.90;;;;;;5029535;28;20095;-65
2022/07/06 06:10:19;;;;;;;4.68;1.15;;;15.20;99.90;;;;;;5032086;28;20037;-65
2022/07/06 06:12:46;;;;;;;2.35;1.05;;;15.20;99.90;;;;;;5033517;28;20381;-65
2022/07/06 06:15:11;;;;;;;4.53;1.10;;;15.20;99.90;;;;;;5030628;28;20037;-65
2022/07/06 06:17:38;;;;;;;3.03;1.13;;;15.30;99.90;;;;;;5019148;28;20041;-65
2022/07/06 06:20:09;;;;;;;3.88;1.05;;;15.40;99.90;;;;;;5032160;28;20377;-65
2022/07/06 06:22:52;;;;;;;3.35;1.08;;;15.50;99.90;;;;;;5008176;28;20080;-65
2022/07/06 06:25:38;;;;;;;5.50;1.08;;;15.60;99.90;;;;;;5020503;28;20033;-65
2022/07/06 06:28:08;;;;;;;3.50;0.95;;;15.70;99.90;;;;;;5023585;28;20036;-65
2022/07/06 06:30:34;;;;;;;4.13;0.90;;;15.80;99.90;;;;;;5035396;28;20092;-66
2022/07/06 06:33:13;;;;;;;3.88;1.10;;;15.90;99.90;;;;;;5035142;28;20429;-65
2022/07/06 06:35:46;;;;;;;3.78;0.95;;;15.90;99.90;;;;;;5027608;28;20096;-65
2022/07/06 06:38:15;;;;;;;5.72;1.23;;;16.00;99.90;;;;;;5029902;28;20548;-65
2022/07/06 06:40:41;;;;;;;6.07;1.10;;;16.10;99.90;;;;;;5018944;28;20052;-65
2022/07/06 06:43:07;;;;;;;4.97;1.20;;;16.20;99.90;;;;;;5033250;28;20037;-65
2022/07/06 06:45:33;;;;;;;3.20;0.95;;;16.20;99.90;;;;;;5028002;28;20042;-65
2022/07/06 06:47:58;;;;;;;5.47;1.83;;;16.20;99.90;;;;;;5023281;28;20057;-65
2022/07/06 06:50:24;;;;;;;4.00;1.10;;;16.30;99.90;;;;;;5027284;28;20041;-66
2022/07/06 06:52:51;;;;;;;6.15;1.10;;;16.30;99.90;;;;;;5028327;28;20072;-65
2022/07/06 06:55:17;;;;;;;2.25;0.80;;;16.40;99.90;;;;;;5027552;28;20045;-65
2022/07/06 06:57:43;;;;;;;9.35;1.58;;;16.50;99.90;;;;;;5031379;28;20048;-66
2022/07/06 07:00:13;;;;;;;4.97;0.80;;;16.50;99.90;;;;;;5028711;28;20119;-65
2022/07/06 07:02:39;;;;;;;5.53;1.20;;;16.60;99.90;;;;;;5026464;28;20484;-65
2022/07/06 07:05:05;;;;;;;2.60;0.88;;;16.70;99.90;;;;;;5027947;28;20102;-66
2022/07/06 07:07:32;;;;;;;5.13;1.02;;;16.70;99.90;;;;;;5030161;28;20037;-65
2022/07/06 07:09:58;;;;;;;3.92;1.05;;;16.70;99.90;;;;;;5025754;28;20044;-65
2022/07/06 07:12:24;;;;;;;5.03;1.10;;;16.70;99.90;;;;;;5022915;28;20034;-66
2022/07/06 07:14:49;;;;;;;3.30;0.70;;;16.70;99.90;;;;;;5025281;28;20029;-66
2022/07/06 07:17:15;;;;;;;3.15;0.60;;;16.70;99.90;;;;;;5023862;28;20095;-65
2022/07/06 07:19:41;;;;;;;3.85;0.90;;;16.70;99.90;;;;;;5027904;28;20038;-65
2022/07/06 07:22:07;;;;;;;2.95;1.00;;;16.70;99.90;;;;;;5030821;28;20403;-65
2022/07/06 07:24:33;;;;;;;2.22;0.80;;;16.60;99.90;;;;;;5027278;28;20590;-65
2022/07/06 07:26:59;;;;;;;2.65;0.65;;;16.60;99.90;;;;;;5023521;28;20045;-65
2022/07/06 07:29:24;;;;;;;2.17;0.75;;;16.60;99.90;;;;;;5030177;28;20042;-65
2022/07/06 07:31:50;;;;;;;5.45;1.20;;;16.60;99.90;;;;;;5029317;28;20041;-66
2022/07/06 07:34:16;;;;;;;3.33;0.98;;;16.60;99.90;;;;;;5026374;28;20072;-66
2022/07/06 07:36:42;;;;;;;2.85;1.02;;;16.70;99.90;;;;;;5024695;28;20046;-65
2022/07/06 07:39:08;;;;;;;2.90;1.00;;;16.70;99.90;;;;;;5019013;28;20037;-65
2022/07/06 07:41:33;;;;;;;3.40;0.80;;;16.80;99.90;;;;;;5016641;28;20034;-65
2022/07/06 07:43:59;;;;;;;3.17;0.98;;;16.80;99.90;;;;;;5030705;28;20037;-65
2022/07/06 07:46:25;;;;;;;4.72;0.77;;;16.80;99.90;;;;;;5027692;28;20457;-65
2022/07/06 07:48:50;;;;;;;1.88;0.55;;;16.80;99.90;;;;;;5029879;28;20112;-65
2022/07/06 07:51:16;;;;;;;3.85;0.82;;;16.80;99.90;;;;;;5027458;28;20127;-66
2022/07/06 07:53:41;;;;;;;2.33;0.93;;;16.90;99.90;;;;;;5021259;28;20066;-65
2022/07/06 07:56:07;;;;;;;2.88;0.88;;;17.00;99.90;;;;;;5026744;28;20045;-65
2022/07/06 07:58:33;;;;;;;2.63;0.88;;;17.10;99.90;;;;;;5018476;28;20684;-65
2022/07/06 08:01:00;;;;;;;3.72;1.00;;;17.10;99.90;;;;;;5030196;28;20117;-65
2022/07/06 08:03:26;;;;;;;2.35;0.90;;;17.20;99.90;;;;;;5035970;28;20041;-65
2022/07/06 08:05:51;;;;;;;5.20;1.13;;;17.20;99.90;;;;;;5019416;28;20399;-66
2022/07/06 08:08:17;;;;;;;6.15;1.10;;;17.30;99.90;;;;;;5031927;28;20032;-66
2022/07/06 08:10:43;;;;;;;5.78;0.90;;;17.40;99.90;;;;;;5017911;28;20042;-65
2022/07/06 08:13:10;;;;;;;6.68;0.98;;;17.50;99.90;;;;;;5025947;28;20043;-65
2022/07/06 08:15:36;;;;;;;4.93;1.20;;;17.50;99.90;;;;;;5029476;28;20373;-66
2022/07/06 08:18:02;;;;;;;3.10;1.02;;;17.60;99.90;;;;;;5032544;28;20051;-65
2022/07/06 08:20:27;;;;;;;2.88;0.95;;;17.60;99.90;;;;;;5024647;28;20038;-65
2022/07/06 08:22:53;;;;;;;3.40;0.93;;;17.60;99.90;;;;;;5023260;28;20039;-66
2022/07/06 08:25:19;;;;;;;4.35;0.75;;;17.60;99.90;;;;;;5024474;28;20508;-65
2022/07/06 08:27:44;;;;;;;2.88;0.90;;;17.50;99.90;;;;;;5024825;28;20521;-66
2022/07/06 08:30:10;;;;;;;5.88;0.90;;;17.50;99.90;;;;;;5029422;28;20048;-66
2022/07/06 08:32:40;;;;;;;4.95;0.90;;;17.60;99.90;;;;;;5028855;28;20056;-66
2022/07/06 08:35:06;;;;;;;4.20;1.10;;;17.80;99.90;;;;;;5018453;28;20041;-65
2022/07/06 08:37:32;;;;;;;4.38;1.00;;;18.10;99.90;;;;;;5027400;28;20116;-66
2022/07/06 08:39:57;;;;;;;3.13;0.88;;;18.40;99.90;;;;;;5024605;28;20132;-66
2022/07/06 08:42:29;;;;;;;2.20;0.73;;;18.70;99.90;;;;;;5025812;28;20409;-66
2022/07/06 08:44:57;;;;;;;2.78;0.70;;;18.90;99.90;;;;;;5025782;28;20099;-65
2022/07/06 08:47:25;;;;;;;2.80;0.80;;;19.00;99.90;;;;;;5024032;28;20042;-66
2022/07/06 08:49:50;;;;;;;3.03;0.90;;;18.80;99.90;;;;;;5031658;28;20120;-66
2022/07/06 08:52:16;;;;;;;1.92;0.80;;;18.60;99.90;;;;;;5029426;28;20503;-66
2022/07/06 08:54:42;;;;;;;3.35;1.25;;;18.60;99.90;;;;;;5020104;28;20045;-66
2022/07/06 08:57:07;;;;;;;3.95;0.80;;;18.60;99.90;;;;;;5019206;28;20045;-66
2022/07/06 08:59:33;;;;;;;2.40;0.80;;;18.80;99.90;;;;;;5018199;28;20033;-66
2022/07/06 09:02:00;;;;;;;2.55;0.90;;;19.00;99.90;;;;;;5026025;28;20034;-70
2022/07/06 09:04:26;;;;;;;3.40;0.88;;;19.40;99.90;;;;;;5027246;28;20044;-66
2022/07/06 09:06:54;;;;;;;1.98;0.68;;;19.70;99.80;;;;;;5019962;28;20096;-64
2022/07/06 09:09:23;;;;;;;2.13;0.98;;;20.20;99.50;;;;;;5024744;28;20045;-69
2022/07/06 09:11:49;;;;;;;2.25;0.65;;;20.30;98.90;;;;;;5028962;28;20041;-64
2022/07/06 09:14:15;;;;;;;3.40;0.80;;;20.50;98.60;;;;;;5018788;28;20419;-64
2022/07/06 09:16:40;;;;;;;3.25;0.80;;;20.50;97.50;;;;;;5027053;28;20133;-65
2022/07/06 09:19:16;;;;;;;3.63;0.80;;;20.60;96.90;;;;;;5027932;28;20036;-65
2022/07/06 09:21:42;;;;;;;1.92;0.77;;;20.60;95.90;;;;;;5024787;28;20037;-69
2022/07/06 09:24:12;;;;;;;2.20;0.70;;;20.90;96.70;;;;;;5020855;28;20033;-64
2022/07/06 09:26:40;;;;;;;3.15;0.90;;;21.10;96.40;;;;;;5027277;28;20048;-67
2022/07/06 09:29:07;;;;;;;3.58;1.13;;;21.20;95.70;;;;;;5022843;28;20041;-67
2022/07/06 09:31:33;;;;;;;1.75;0.60;;;21.40;95.30;;;;;;5020799;28;20045;-66
2022/07/06 09:34:10;;;;;;;1.20;0.70;;;21.60;94.60;;;;;;5016612;28;20045;-70
2022/07/06 09:36:46;;;;;;;1.40;0.57;;;21.80;93.20;;;;;;5025958;28;20042;-64
2022/07/06 09:39:22;;;;;;;1.55;0.82;;;22.00;93.50;;;;;;5030375;28;20041;-65
2022/07/06 09:41:59;;;;;;;2.88;0.88;;;22.30;91.30;;;;;;5028670;28;20455;-65
2022/07/06 09:44:30;;;;;;;3.92;0.70;;;22.60;91.00;;;;;;5026433;28;20488;-66
2022/07/06 09:47:08;;;;;;;3.75;0.95;;;22.70;91.00;;;;;;5025033;28;20053;-65
2022/07/06 09:49:34;;;;;;;3.42;0.77;;;22.80;90.00;;;;;;5033224;28;20049;-65
2022/07/06 09:52:03;;;;;;;1.15;0.70;;;22.70;88.40;;;;;;5030777;28;20037;-65
2022/07/06 09:54:29;;;;;;;1.98;0.65;;;22.50;85.90;;;;;;5026909;28;20539;-66
2022/07/06 09:56:56;;;;;;;2.42;0.80;;;22.10;86.40;;;;;;5031035;28;20033;-65
2022/07/06 09:59:29;;;;;;;3.42;1.00;;;21.90;87.40;;;;;;5023030;28;20041;-65
2022/07/06 10:02:01;;;;;;;2.78;0.90;;;21.80;88.60;;;;;;5029289;28;20524;-65
2022/07/06 10:04:27;;;;;;;;;;;21.70;89.20;;;;;;5046931;28;20304;-65
2022/07/06 10:06:54;;;;;;;1.80;0.63;;;21.70;88.90;;;;;;5027781;28;19956;-65
2022/07/06 10:09:22;;;;;;;2.60;0.90;;;21.80;90.60;;;;;;5025940;28;20030;-65
2022/07/06 10:12:00;;;;;;;2.05;0.95;;;21.80;89.30;;;;;;5023729;28;20038;-65
2022/07/06 10:14:28;;;;;;;2.80;0.90;;;21.80;86.80;;;;;;5022096;28;20037;-65
2022/07/06 10:16:57;;;;;;;1.42;0.65;;;21.70;88.60;;;;;;5018963;28;20041;-66
2022/07/06 10:19:23;;;;;;;2.72;0.75;;;21.60;88.80;;;;;;5031092;28;20033;-66
2022/07/06 10:21:49;;;;;;;1.83;0.90;;;21.40;88.60;;;;;;5020521;28;20049;-65
2022/07/06 10:24:15;;;;;;;0.75;0.60;;;21.30;88.20;;;;;;5039821;28;20037;-66
2022/07/06 10:26:41;;;;;;;3.65;0.90;;;21.20;88.40;;;;;;5018751;28;20382;-65
2022/07/06 10:29:07;;;;;;;2.63;0.60;;;21.20;88.60;;;;;;5029303;28;20527;-65
2022/07/06 10:31:36;;;;;;;4.65;1.00;;;21.20;88.30;;;;;;5023643;28;20121;-65
2022/07/06 10:34:04;;;;;;;1.80;0.80;;;21.40;89.00;;;;;;5026707;28;20130;-65
2022/07/06 10:36:30;;;;;;;1.52;0.70;;;21.60;88.70;;;;;;5022175;28;20034;-65
2022/07/06 10:38:57;;;;;;;2.33;0.50;;;22.00;89.40;;;;;;5022342;28;20033;-65
2022/07/06 10:41:35;;;;;;;3.65;0.82;;;22.20;89.00;;;;;;5019740;28;20083;-65
2022/07/06 10:44:30;;;;;;;2.33;0.80;;;22.20;86.60;;;;;;5029457;28;20080;-65
2022/07/06 10:46:59;;;;;;;2.28;0.90;;;22.00;84.80;;;;;;5011525;28;20186;-65
2022/07/06 10:49:26;;;;;;;2.83;1.08;;;21.90;87.30;;;;;;5038978;28;20400;-65
2022/07/06 10:51:52;;;;;;;3.20;0.90;;;21.80;87.00;;;;;;5028832;28;20037;-66
2022/07/06 10:54:20;;;;;;;2.80;0.93;;;21.80;86.60;;;;;;5025624;28;20251;-65
2022/07/06 10:56:48;;;;;;;4.07;0.98;;;21.80;87.10;;;;;;5025527;28;20056;-65
2022/07/06 10:59:16;;;;;;;2.65;0.77;;;21.90;87.00;;;;;;5031078;28;20048;-65
2022/07/06 11:02:17;;;;;;;3.83;0.80;;;21.70;86.40;;;;;;5031758;28;20045;-65
2022/07/06 11:04:45;;;;;;;2.47;0.93;;;21.60;86.30;;;;;;5039937;28;20045;-65
2022/07/06 11:07:13;;;;;;;3.08;0.70;;;21.60;87.20;;;;;;5030207;28;20076;-65
2022/07/06 11:09:42;;;;;;;1.73;0.80;;;21.60;87.70;;;;;;5033640;28;20038;-65
2022/07/06 11:12:21;;;;;;;5.53;0.88;;;21.70;88.20;;;;;;5028318;28;20077;-65
2022/07/06 11:14:48;;;;;;;1.73;0.80;;;22.10;88.40;;;;;;5023235;28;20038;-65
2022/07/06 11:17:15;;;;;;;2.25;0.88;;;22.40;88.50;;;;;;5024147;28;20071;-65
2022/07/06 11:19:56;;;;;;;3.50;0.90;;;22.60;86.90;;;;;;5024949;28;20042;-65
2022/07/06 11:22:24;;;;;;;4.25;1.10;;;22.60;84.30;;;;;;5030105;28;20067;-65
2022/07/06 11:24:51;;;;;;;2.40;0.75;;;22.60;85.20;;;;;;5019595;28;20069;-65
2022/07/06 11:27:17;;;;;;;2.85;0.88;;;22.40;84.60;;;;;;5029753;28;20291;-65
2022/07/06 11:29:44;;;;;;;1.77;0.85;;;22.30;84.40;;;;;;5025528;28;20366;-65
2022/07/06 11:32:11;;;;;;;2.55;0.95;;;22.10;84.20;;;;;;5027504;28;20076;-65
2022/07/06 11:34:42;;;;;;;2.00;0.90;;;21.90;84.00;;;;;;5029055;28;20080;-65
2022/07/06 11:37:13;;;;;;;2.05;0.80;;;21.80;85.10;;;;;;5028966;28;20065;-65
2022/07/06 11:39:41;;;;;;;1.85;0.82;;;21.90;85.50;;;;;;5030162;28;20038;-65
2022/07/06 11:42:08;;;;;;;1.23;0.80;;;22.10;85.70;;;;;;5045116;28;20037;-65
2022/07/06 11:44:35;;;;;;;6.38;0.98;;;22.40;85.10;;;;;;5025365;28;20045;-65
2022/07/06 11:47:03;;;;;;;5.25;1.42;;;22.60;84.40;;;;;;5020453;28;20103;-65
2022/07/06 11:49:29;;;;;;;2.08;0.80;;;22.90;83.90;;;;;;5020711;28;20060;-65
2022/07/06 11:51:55;;;;;;;1.75;0.80;;;23.20;83.60;;;;;;5024564;28;20405;-65
2022/07/06 11:54:22;;;;;;;3.90;0.80;;;23.50;82.60;;;;;;5018851;28;20042;-65
2022/07/06 11:56:56;;;;;;;2.38;0.90;;;23.70;81.20;;;;;;5028376;28;20799;-65
2022/07/06 11:59:24;;;;;;;2.17;0.88;;;23.70;78.20;;;;;;5023951;28;20042;-65
2022/07/06 12:01:57;;;;;;;2.90;0.95;;;23.60;78.00;;;;;;5024776;28;20384;-65
2022/07/06 12:04:24;;;;;;;1.48;0.80;;;23.60;79.50;;;;;;5028805;28;20069;-65
2022/07/06 12:06:50;;;;;;;1.95;0.95;;;23.90;80.40;;;;;;5022692;28;20033;-66
2022/07/06 12:09:15;;;;;;;3.95;0.88;;;23.90;79.50;;;;;;5022986;28;20038;-65
2022/07/06 12:11:46;;;;;;;4.78;1.25;;;24.00;79.00;;;;;;5025479;28;20124;-65
2022/07/06 12:14:18;;;;;;;3.40;0.90;;;24.10;78.30;;;;;;5025863;28;20103;-65
2022/07/06 12:16:45;;;;;;;3.42;0.90;;;24.10;76.40;;;;;;5031521;28;20080;-65
2022/07/06 12:19:12;;;;;;;3.72;1.00;;;24.00;75.40;;;;;;5029105;28;20442;-66
2022/07/06 12:21:49;;;;;;;2.95;0.90;;;23.80;74.30;;;;;;5028937;28;20034;-65
2022/07/06 12:24:23;;;;;;;2.28;0.85;;;23.50;74.40;;;;;;5024355;28;20042;-63
2022/07/06 12:26:50;;;;;;;1.48;0.70;;;23.70;75.10;;;;;;5029377;28;20041;-63
2022/07/06 12:29:16;;;;;;;2.88;0.80;;;23.80;74.50;;;;;;5030677;28;20393;-64
2022/07/06 12:31:49;;;;;;;2.05;0.80;;;23.70;74.00;;;;;;5020132;28;20041;-64
2022/07/06 12:34:18;;;;;;;2.95;0.82;;;23.50;72.80;;;;;;5026611;28;20493;-64
2022/07/06 12:36:48;;;;;;;1.85;0.82;;;23.50;73.70;;;;;;5018899;28;20065;-63
2022/07/06 12:39:16;;;;;;;3.92;1.08;;;23.50;74.40;;;;;;5022109;28;20038;-63
2022/07/06 12:42:00;;;;;;;4.32;1.00;;;23.50;73.70;;;;;;5016281;28;20116;-65
2022/07/06 12:44:26;;;;;;;1.73;0.80;;;23.50;73.20;;;;;;5019502;28;20124;-66
2022/07/06 12:47:08;;;;;;;3.33;1.10;;;23.50;73.40;;;;;;5019634;28;20084;-65
2022/07/06 12:49:36;;;;;;;2.42;0.73;;;23.30;72.10;;;;;;5025485;28;20037;-64
2022/07/06 12:52:15;;;;;;;2.88;0.90;;;23.40;73.10;;;;;;5020800;28;20060;-66
2022/07/06 12:54:49;;;;;;;1.85;0.90;;;23.60;73.60;;;;;;5026949;28;20037;-63